sensor_id;sensor_type;location;lat;lon;timestamp;P1;durP1;ratioP1;P2;durP2;ratioP2
14118;SDS011;7138;49.246;9.100;2022-08-21T00:01:56;4.63;;;2.40;;
14118;SDS011;7138;49.246;9.100;2022-08-21T00:04:22;4.55;;;2.30;;
14118;SDS011;7138;49.246;9.100;2022-08-21T00:06:49;4.43;;;2.10;;
14118;SDS011;7138;49.246;9.100;2022-08-21T00:09:15;5.65;;;2.05;;
14118;SDS011;7138;49.246;9.100;2022-08-21T00:11:42;6.03;;;1.90;;
14118;SDS011;7138;49.246;9.100;2022-08-21T00:14:09;4.53;;;2.10;;
14118;SDS011;7138;49.246;9.100;2022-08-21T00:16:39;5.40;;;2.25;;
14118;SDS011;7138;49.246;9.100;2022-08-21T00:19:07;4.70;;;2.20;;
14118;SDS011;7138;49.246;9.100;2022-08-21T00:21:34;6.32;;;2.15;;
14118;SDS011;7138;49.246;9.100;2022-08-21T00:24:00;5.50;;;2.42;;
14118;SDS011;7138;49.246;9.100;2022-08-21T00:26:27;4.63;;;2.28;;
14118;SDS011;7138;49.246;9.100;2022-08-21T00:28:53;5.13;;;2.58;;
14118;SDS011;7138;49.246;9.100;2022-08-21T00:31:18;6.00;;;3.17;;
14118;SDS011;7138;49.246;9.100;2022-08-21T00:33:45;4.60;;;2.88;;
14118;SDS011;7138;49.246;9.100;2022-08-21T00:36:12;6.18;;;3.08;;
14118;SDS011;7138;49.246;9.100;2022-08-21T00:38:38;6.90;;;3.33;;
14118;SDS011;7138;49.246;9.100;2022-08-21T00:41:06;6.47;;;3.17;;
14118;SDS011;7138;49.246;9.100;2022-08-21T00:43:36;5.13;;;3.08;;
14118;SDS011;7138;49.246;9.100;2022-08-21T00:46:05;7.05;;;3.10;;
14118;SDS011;7138;49.246;9.100;2022-08-21T00:48:33;4.65;;;3.05;;
14118;SDS011;7138;49.246;9.100;2022-08-21T00:51:02;7.30;;;3.33;;
14118;SDS011;7138;49.246;9.100;2022-08-21T00:53:36;5.78;;;3.03;;
14118;SDS011;7138;49.246;9.100;2022-08-21T00:56:05;6.13;;;3.08;;
14118;SDS011;7138;49.246;9.100;2022-08-21T00:58:35;4.97;;;2.78;;
14118;SDS011;7138;49.246;9.100;2022-08-21T01:01:04;6.50;;;3.05;;
14118;SDS011;7138;49.246;9.100;2022-08-21T01:03:33;5.53;;;2.67;;
14118;SDS011;7138;49.246;9.100;2022-08-21T01:06:00;5.15;;;3.05;;
14118;SDS011;7138;49.246;9.100;2022-08-21T01:08:27;5.82;;;2.88;;
14118;SDS011;7138;49.246;9.100;2022-08-21T01:10:55;4.85;;;2.78;;
14118;SDS011;7138;49.246;9.100;2022-08-21T01:13:24;4.72;;;2.75;;
14118;SDS011;7138;49.246;9.100;2022-08-21T01:15:55;4.85;;;2.90;;
14118;SDS011;7138;49.246;9.100;2022-08-21T01:18:24;6.03;;;3.40;;
14118;SDS011;7138;49.246;9.100;2022-08-21T01:20:59;4.75;;;2.90;;
14118;SDS011;7138;49.246;9.100;2022-08-21T01:23:32;6.85;;;3.50;;
14118;SDS011;7138;49.246;9.100;2022-08-21T01:25:59;5.72;;;3.28;;
14118;SDS011;7138;49.246;9.100;2022-08-21T01:28:25;5.57;;;3.22;;
14118;SDS011;7138;49.246;9.100;2022-08-21T01:30:55;7.30;;;3.30;;
14118;SDS011;7138;49.246;9.100;2022-08-21T01:33:22;5.32;;;3.28;;
14118;SDS011;7138;49.246;9.100;2022-08-21T01:35:50;5.03;;;3.20;;
14118;SDS011;7138;49.246;9.100;2022-08-21T01:38:20;5.68;;;3.28;;
14118;SDS011;7138;49.246;9.100;2022-08-21T01:40:46;6.75;;;3.30;;
14118;SDS011;7138;49.246;9.100;2022-08-21T01:43:12;6.68;;;3.30;;
14118;SDS011;7138;49.246;9.100;2022-08-21T01:45:38;6.38;;;3.42;;
14118;SDS011;7138;49.246;9.100;2022-08-21T01:48:04;5.97;;;3.83;;
14118;SDS011;7138;49.246;9.100;2022-08-21T01:50:30;6.25;;;3.58;;
14118;SDS011;7138;49.246;9.100;2022-08-21T01:52:56;9.40;;;3.72;;
14118;SDS011;7138;49.246;9.100;2022-08-21T01:55:23;5.93;;;3.90;;
14118;SDS011;7138;49.246;9.100;2022-08-21T01:57:49;6.15;;;3.63;;
14118;SDS011;7138;49.246;9.100;2022-08-21T02:00:16;5.57;;;3.67;;
14118;SDS011;7138;49.246;9.100;2022-08-21T02:02:48;6.00;;;3.90;;
14118;SDS011;7138;49.246;9.100;2022-08-21T02:05:15;5.97;;;3.75;;
14118;SDS011;7138;49.246;9.100;2022-08-21T02:07:42;5.43;;;3.72;;
14118;SDS011;7138;49.246;9.100;2022-08-21T02:10:12;6.45;;;4.00;;
14118;SDS011;7138;49.246;9.100;2022-08-21T02:12:43;5.30;;;3.70;;
14118;SDS011;7138;49.246;9.100;2022-08-21T02:15:09;7.10;;;3.80;;
14118;SDS011;7138;49.246;9.100;2022-08-21T02:17:39;6.28;;;3.95;;
14118;SDS011;7138;49.246;9.100;2022-08-21T02:20:08;6.38;;;3.67;;
14118;SDS011;7138;49.246;9.100;2022-08-21T02:22:36;6.13;;;3.55;;
14118;SDS011;7138;49.246;9.100;2022-08-21T02:25:02;5.43;;;3.53;;
14118;SDS011;7138;49.246;9.100;2022-08-21T02:27:29;6.28;;;4.20;;
14118;SDS011;7138;49.246;9.100;2022-08-21T02:30:04;6.75;;;4.05;;
14118;SDS011;7138;49.246;9.100;2022-08-21T02:32:32;8.95;;;4.10;;
14118;SDS011;7138;49.246;9.100;2022-08-21T02:34:58;5.90;;;4.50;;
14118;SDS011;7138;49.246;9.100;2022-08-21T02:37:24;9.57;;;4.40;;
14118;SDS011;7138;49.246;9.100;2022-08-21T02:39:50;6.22;;;4.30;;
14118;SDS011;7138;49.246;9.100;2022-08-21T02:42:16;7.65;;;4.20;;
14118;SDS011;7138;49.246;9.100;2022-08-21T02:44:42;7.35;;;4.20;;
14118;SDS011;7138;49.246;9.100;2022-08-21T02:47:09;6.82;;;4.57;;
14118;SDS011;7138;49.246;9.100;2022-08-21T02:49:35;8.90;;;4.20;;
14118;SDS011;7138;49.246;9.100;2022-08-21T02:52:01;6.38;;;4.28;;
14118;SDS011;7138;49.246;9.100;2022-08-21T02:54:27;8.75;;;3.88;;
14118;SDS011;7138;49.246;9.100;2022-08-21T02:56:53;8.52;;;4.57;;
14118;SDS011;7138;49.246;9.100;2022-08-21T02:59:19;6.03;;;3.88;;
14118;SDS011;7138;49.246;9.100;2022-08-21T03:01:44;7.25;;;4.60;;
14118;SDS011;7138;49.246;9.100;2022-08-21T03:04:11;6.72;;;4.32;;
14118;SDS011;7138;49.246;9.100;2022-08-21T03:06:37;6.22;;;4.18;;
14118;SDS011;7138;49.246;9.100;2022-08-21T03:09:03;6.15;;;4.00;;
14118;SDS011;7138;49.246;9.100;2022-08-21T03:11:29;7.35;;;3.80;;
14118;SDS011;7138;49.246;9.100;2022-08-21T03:13:55;6.38;;;3.72;;
14118;SDS011;7138;49.246;9.100;2022-08-21T03:16:20;7.00;;;4.15;;
14118;SDS011;7138;49.246;9.100;2022-08-21T03:18:46;8.95;;;4.20;;
14118;SDS011;7138;49.246;9.100;2022-08-21T03:21:14;7.20;;;4.05;;
14118;SDS011;7138;49.246;9.100;2022-08-21T03:23:40;7.00;;;4.00;;
14118;SDS011;7138;49.246;9.100;2022-08-21T03:26:07;8.38;;;4.70;;
14118;SDS011;7138;49.246;9.100;2022-08-21T03:28:33;10.57;;;4.85;;
14118;SDS011;7138;49.246;9.100;2022-08-21T03:30:59;5.85;;;4.25;;
14118;SDS011;7138;49.246;9.100;2022-08-21T03:33:25;7.57;;;4.72;;
14118;SDS011;7138;49.246;9.100;2022-08-21T03:35:56;9.32;;;4.45;;
14118;SDS011;7138;49.246;9.100;2022-08-21T03:38:28;7.25;;;4.70;;
14118;SDS011;7138;49.246;9.100;2022-08-21T03:40:57;7.03;;;4.40;;
14118;SDS011;7138;49.246;9.100;2022-08-21T03:43:25;7.13;;;4.55;;
14118;SDS011;7138;49.246;9.100;2022-08-21T03:45:51;7.57;;;4.63;;
14118;SDS011;7138;49.246;9.100;2022-08-21T03:48:20;6.00;;;4.60;;
14118;SDS011;7138;49.246;9.100;2022-08-21T03:50:47;6.90;;;4.57;;
14118;SDS011;7138;49.246;9.100;2022-08-21T03:53:15;7.80;;;4.50;;
14118;SDS011;7138;49.246;9.100;2022-08-21T03:55:42;6.20;;;3.90;;
14118;SDS011;7138;49.246;9.100;2022-08-21T03:58:09;6.28;;;3.95;;
14118;SDS011;7138;49.246;9.100;2022-08-21T04:00:35;6.57;;;4.30;;
14118;SDS011;7138;49.246;9.100;2022-08-21T04:03:02;8.77;;;4.30;;
14118;SDS011;7138;49.246;9.100;2022-08-21T04:05:28;6.82;;;4.07;;
14118;SDS011;7138;49.246;9.100;2022-08-21T04:07:55;7.35;;;4.13;;
14118;SDS011;7138;49.246;9.100;2022-08-21T04:10:24;7.35;;;4.43;;
14118;SDS011;7138;49.246;9.100;2022-08-21T04:12:54;9.68;;;4.57;;
14118;SDS011;7138;49.246;9.100;2022-08-21T04:15:21;6.65;;;4.13;;
14118;SDS011;7138;49.246;9.100;2022-08-21T04:17:48;7.93;;;4.45;;
14118;SDS011;7138;49.246;9.100;2022-08-21T04:20:14;6.50;;;4.35;;
14118;SDS011;7138;49.246;9.100;2022-08-21T04:22:41;7.68;;;4.00;;
14118;SDS011;7138;49.246;9.100;2022-08-21T04:25:07;5.80;;;3.67;;
14118;SDS011;7138;49.246;9.100;2022-08-21T04:27:33;7.30;;;4.40;;
14118;SDS011;7138;49.246;9.100;2022-08-21T04:30:01;6.90;;;3.90;;
14118;SDS011;7138;49.246;9.100;2022-08-21T04:32:28;8.52;;;4.38;;
14118;SDS011;7138;49.246;9.100;2022-08-21T04:34:57;8.23;;;4.75;;
14118;SDS011;7138;49.246;9.100;2022-08-21T04:37:24;6.80;;;4.18;;
14118;SDS011;7138;49.246;9.100;2022-08-21T04:39:50;7.65;;;3.88;;
14118;SDS011;7138;49.246;9.100;2022-08-21T04:42:16;6.43;;;4.20;;
14118;SDS011;7138;49.246;9.100;2022-08-21T04:44:42;8.35;;;4.30;;
14118;SDS011;7138;49.246;9.100;2022-08-21T04:47:09;8.13;;;4.32;;
14118;SDS011;7138;49.246;9.100;2022-08-21T04:49:35;6.93;;;4.05;;
14118;SDS011;7138;49.246;9.100;2022-08-21T04:52:01;13.05;;;4.80;;
14118;SDS011;7138;49.246;9.100;2022-08-21T04:54:28;7.22;;;4.45;;
14118;SDS011;7138;49.246;9.100;2022-08-21T04:56:55;7.07;;;4.43;;
14118;SDS011;7138;49.246;9.100;2022-08-21T04:59:31;7.57;;;4.75;;
14118;SDS011;7138;49.246;9.100;2022-08-21T05:02:03;6.70;;;4.28;;
14118;SDS011;7138;49.246;9.100;2022-08-21T05:04:33;6.93;;;3.92;;
14118;SDS011;7138;49.246;9.100;2022-08-21T05:07:05;6.32;;;4.13;;
14118;SDS011;7138;49.246;9.100;2022-08-21T05:09:37;7.93;;;4.10;;
14118;SDS011;7138;49.246;9.100;2022-08-21T05:12:04;9.52;;;4.60;;
14118;SDS011;7138;49.246;9.100;2022-08-21T05:14:30;8.38;;;4.15;;
14118;SDS011;7138;49.246;9.100;2022-08-21T05:16:56;8.88;;;4.03;;
14118;SDS011;7138;49.246;9.100;2022-08-21T05:19:22;4.97;;;3.40;;
14118;SDS011;7138;49.246;9.100;2022-08-21T05:21:49;5.28;;;3.60;;
14118;SDS011;7138;49.246;9.100;2022-08-21T05:24:16;5.65;;;3.05;;
14118;SDS011;7138;49.246;9.100;2022-08-21T05:26:42;7.03;;;3.70;;
14118;SDS011;7138;49.246;9.100;2022-08-21T05:29:09;7.63;;;3.72;;
14118;SDS011;7138;49.246;9.100;2022-08-21T05:31:36;6.20;;;3.50;;
14118;SDS011;7138;49.246;9.100;2022-08-21T05:34:02;6.50;;;3.63;;
14118;SDS011;7138;49.246;9.100;2022-08-21T05:36:28;4.65;;;3.45;;
14118;SDS011;7138;49.246;9.100;2022-08-21T05:38:56;7.05;;;3.28;;
14118;SDS011;7138;49.246;9.100;2022-08-21T05:41:21;7.88;;;3.55;;
14118;SDS011;7138;49.246;9.100;2022-08-21T05:43:47;7.05;;;3.28;;
14118;SDS011;7138;49.246;9.100;2022-08-21T05:46:14;6.95;;;3.13;;
14118;SDS011;7138;49.246;9.100;2022-08-21T05:48:41;6.75;;;3.58;;
14118;SDS011;7138;49.246;9.100;2022-08-21T05:51:14;5.20;;;3.00;;
14118;SDS011;7138;49.246;9.100;2022-08-21T05:53:41;6.43;;;3.70;;
14118;SDS011;7138;49.246;9.100;2022-08-21T05:56:10;6.28;;;2.95;;
14118;SDS011;7138;49.246;9.100;2022-08-21T05:58:37;6.97;;;3.17;;
14118;SDS011;7138;49.246;9.100;2022-08-21T06:01:03;4.90;;;3.47;;
14118;SDS011;7138;49.246;9.100;2022-08-21T06:03:31;6.55;;;3.10;;
14118;SDS011;7138;49.246;9.100;2022-08-21T06:06:01;5.97;;;3.92;;
14118;SDS011;7138;49.246;9.100;2022-08-21T06:08:27;4.78;;;2.83;;
14118;SDS011;7138;49.246;9.100;2022-08-21T06:10:55;5.75;;;3.20;;
14118;SDS011;7138;49.246;9.100;2022-08-21T06:13:25;7.57;;;2.80;;
14118;SDS011;7138;49.246;9.100;2022-08-21T06:15:59;6.70;;;2.80;;
14118;SDS011;7138;49.246;9.100;2022-08-21T06:18:29;6.72;;;2.85;;
14118;SDS011;7138;49.246;9.100;2022-08-21T06:20:55;6.75;;;3.08;;
14118;SDS011;7138;49.246;9.100;2022-08-21T06:23:21;5.63;;;3.00;;
14118;SDS011;7138;49.246;9.100;2022-08-21T06:25:47;7.10;;;2.67;;
14118;SDS011;7138;49.246;9.100;2022-08-21T06:28:12;6.30;;;2.50;;
14118;SDS011;7138;49.246;9.100;2022-08-21T06:30:39;6.43;;;2.90;;
14118;SDS011;7138;49.246;9.100;2022-08-21T06:33:06;6.75;;;2.60;;
14118;SDS011;7138;49.246;9.100;2022-08-21T06:35:32;6.97;;;2.80;;
14118;SDS011;7138;49.246;9.100;2022-08-21T06:37:58;7.00;;;2.75;;
14118;SDS011;7138;49.246;9.100;2022-08-21T06:40:24;7.20;;;2.65;;
14118;SDS011;7138;49.246;9.100;2022-08-21T06:42:52;5.90;;;2.72;;
14118;SDS011;7138;49.246;9.100;2022-08-21T06:45:18;6.53;;;2.72;;
14118;SDS011;7138;49.246;9.100;2022-08-21T06:47:45;7.60;;;2.67;;
14118;SDS011;7138;49.246;9.100;2022-08-21T06:50:11;8.10;;;3.33;;
14118;SDS011;7138;49.246;9.100;2022-08-21T06:52:37;9.27;;;3.15;;
14118;SDS011;7138;49.246;9.100;2022-08-21T06:55:04;8.07;;;2.85;;
14118;SDS011;7138;49.246;9.100;2022-08-21T06:57:33;7.35;;;2.80;;
14118;SDS011;7138;49.246;9.100;2022-08-21T07:00:00;6.72;;;2.65;;
14118;SDS011;7138;49.246;9.100;2022-08-21T07:02:26;6.63;;;2.80;;
14118;SDS011;7138;49.246;9.100;2022-08-21T07:04:53;7.70;;;3.10;;
14118;SDS011;7138;49.246;9.100;2022-08-21T07:07:19;9.07;;;3.08;;
14118;SDS011;7138;49.246;9.100;2022-08-21T07:09:45;10.52;;;3.40;;
14118;SDS011;7138;49.246;9.100;2022-08-21T07:12:11;7.03;;;2.75;;
14118;SDS011;7138;49.246;9.100;2022-08-21T07:14:38;8.00;;;2.97;;
14118;SDS011;7138;49.246;9.100;2022-08-21T07:17:03;8.10;;;3.15;;
14118;SDS011;7138;49.246;9.100;2022-08-21T07:19:29;9.73;;;3.08;;
14118;SDS011;7138;49.246;9.100;2022-08-21T07:21:58;6.70;;;3.20;;
14118;SDS011;7138;49.246;9.100;2022-08-21T07:24:27;7.85;;;2.80;;
14118;SDS011;7138;49.246;9.100;2022-08-21T07:26:54;7.70;;;2.78;;
14118;SDS011;7138;49.246;9.100;2022-08-21T07:29:20;6.95;;;2.80;;
14118;SDS011;7138;49.246;9.100;2022-08-21T07:31:46;9.02;;;3.00;;
14118;SDS011;7138;49.246;9.100;2022-08-21T07:34:12;5.80;;;3.30;;
14118;SDS011;7138;49.246;9.100;2022-08-21T07:36:39;9.32;;;2.80;;
14118;SDS011;7138;49.246;9.100;2022-08-21T07:39:06;11.68;;;3.22;;
14118;SDS011;7138;49.246;9.100;2022-08-21T07:41:33;8.00;;;3.38;;
14118;SDS011;7138;49.246;9.100;2022-08-21T07:44:00;7.88;;;3.10;;
14118;SDS011;7138;49.246;9.100;2022-08-21T07:46:27;7.90;;;3.20;;
14118;SDS011;7138;49.246;9.100;2022-08-21T07:48:53;6.60;;;3.40;;
14118;SDS011;7138;49.246;9.100;2022-08-21T07:51:20;8.32;;;3.20;;
14118;SDS011;7138;49.246;9.100;2022-08-21T07:53:52;9.02;;;3.30;;
14118;SDS011;7138;49.246;9.100;2022-08-21T07:56:22;7.70;;;2.90;;
14118;SDS011;7138;49.246;9.100;2022-08-21T07:58:48;7.45;;;2.78;;
14118;SDS011;7138;49.246;9.100;2022-08-21T08:01:14;6.15;;;3.22;;
14118;SDS011;7138;49.246;9.100;2022-08-21T08:03:40;6.85;;;3.20;;
14118;SDS011;7138;49.246;9.100;2022-08-21T08:06:06;9.13;;;3.95;;
14118;SDS011;7138;49.246;9.100;2022-08-21T08:08:37;8.48;;;3.30;;
14118;SDS011;7138;49.246;9.100;2022-08-21T08:11:02;9.00;;;3.80;;
14118;SDS011;7138;49.246;9.100;2022-08-21T08:13:30;8.60;;;3.30;;
14118;SDS011;7138;49.246;9.100;2022-08-21T08:15:56;6.45;;;3.35;;
14118;SDS011;7138;49.246;9.100;2022-08-21T08:18:22;6.75;;;3.70;;
14118;SDS011;7138;49.246;9.100;2022-08-21T08:20:48;8.95;;;4.28;;
14118;SDS011;7138;49.246;9.100;2022-08-21T08:23:14;7.28;;;3.55;;
14118;SDS011;7138;49.246;9.100;2022-08-21T08:25:41;6.78;;;3.22;;
14118;SDS011;7138;49.246;9.100;2022-08-21T08:28:07;8.05;;;3.50;;
14118;SDS011;7138;49.246;9.100;2022-08-21T08:30:34;7.90;;;3.47;;
14118;SDS011;7138;49.246;9.100;2022-08-21T08:33:00;7.30;;;3.58;;
14118;SDS011;7138;49.246;9.100;2022-08-21T08:35:26;10.07;;;3.33;;
14118;SDS011;7138;49.246;9.100;2022-08-21T08:37:53;6.82;;;4.20;;
14118;SDS011;7138;49.246;9.100;2022-08-21T08:40:20;9.13;;;4.20;;
14118;SDS011;7138;49.246;9.100;2022-08-21T08:42:55;7.40;;;4.20;;
14118;SDS011;7138;49.246;9.100;2022-08-21T08:45:21;7.65;;;3.90;;
14118;SDS011;7138;49.246;9.100;2022-08-21T08:47:53;7.22;;;4.22;;
14118;SDS011;7138;49.246;9.100;2022-08-21T08:50:27;8.35;;;4.00;;
14118;SDS011;7138;49.246;9.100;2022-08-21T08:53:06;6.75;;;3.85;;
14118;SDS011;7138;49.246;9.100;2022-08-21T08:55:41;6.22;;;3.60;;
14118;SDS011;7138;49.246;9.100;2022-08-21T08:58:10;6.97;;;3.85;;
14118;SDS011;7138;49.246;9.100;2022-08-21T09:00:43;8.02;;;3.80;;
14118;SDS011;7138;49.246;9.100;2022-08-21T09:03:16;7.93;;;3.78;;
14118;SDS011;7138;49.246;9.100;2022-08-21T09:05:43;8.45;;;3.85;;
14118;SDS011;7138;49.246;9.100;2022-08-21T09:08:20;6.00;;;3.35;;
14118;SDS011;7138;49.246;9.100;2022-08-21T09:11:09;6.15;;;3.13;;
14118;SDS011;7138;49.246;9.100;2022-08-21T09:13:50;7.75;;;3.35;;
14118;SDS011;7138;49.246;9.100;2022-08-21T09:16:27;7.13;;;3.30;;
14118;SDS011;7138;49.246;9.100;2022-08-21T09:19:15;8.85;;;3.50;;
14118;SDS011;7138;49.246;9.100;2022-08-21T09:22:03;6.88;;;3.60;;
14118;SDS011;7138;49.246;9.100;2022-08-21T09:24:44;7.82;;;3.05;;
14118;SDS011;7138;49.246;9.100;2022-08-21T09:27:33;6.47;;;3.30;;
14118;SDS011;7138;49.246;9.100;2022-08-21T09:29:59;6.68;;;3.17;;
14118;SDS011;7138;49.246;9.100;2022-08-21T09:32:27;6.82;;;3.28;;
14118;SDS011;7138;49.246;9.100;2022-08-21T09:37:28;6.95;;;3.10;;
14118;SDS011;7138;49.246;9.100;2022-08-21T09:39:56;6.75;;;2.75;;
14118;SDS011;7138;49.246;9.100;2022-08-21T09:42:25;6.63;;;2.97;;
14118;SDS011;7138;49.246;9.100;2022-08-21T09:45:05;6.97;;;2.90;;
14118;SDS011;7138;49.246;9.100;2022-08-21T09:47:37;9.50;;;2.95;;
14118;SDS011;7138;49.246;9.100;2022-08-21T09:50:08;4.85;;;2.45;;
14118;SDS011;7138;49.246;9.100;2022-08-21T09:52:48;8.30;;;2.45;;
14118;SDS011;7138;49.246;9.100;2022-08-21T09:55:19;6.20;;;2.83;;
14118;SDS011;7138;49.246;9.100;2022-08-21T09:58:13;7.15;;;2.90;;
14118;SDS011;7138;49.246;9.100;2022-08-21T10:00:40;7.53;;;2.95;;
14118;SDS011;7138;49.246;9.100;2022-08-21T10:03:13;5.63;;;3.00;;
14118;SDS011;7138;49.246;9.100;2022-08-21T10:05:53;7.35;;;2.88;;
14118;SDS011;7138;49.246;9.100;2022-08-21T10:08:23;8.07;;;2.58;;
14118;SDS011;7138;49.246;9.100;2022-08-21T10:10:53;7.80;;;2.83;;
14118;SDS011;7138;49.246;9.100;2022-08-21T10:13:28;8.73;;;2.70;;
14118;SDS011;7138;49.246;9.100;2022-08-21T10:16:15;7.68;;;3.05;;
14118;SDS011;7138;49.246;9.100;2022-08-21T10:19:02;7.32;;;2.50;;
14118;SDS011;7138;49.246;9.100;2022-08-21T10:21:49;6.47;;;2.72;;
14118;SDS011;7138;49.246;9.100;2022-08-21T10:24:30;6.07;;;3.00;;
14118;SDS011;7138;49.246;9.100;2022-08-21T10:27:06;7.35;;;2.80;;
14118;SDS011;7138;49.246;9.100;2022-08-21T10:29:47;7.28;;;2.65;;
14118;SDS011;7138;49.246;9.100;2022-08-21T10:32:27;9.05;;;2.58;;
14118;SDS011;7138;49.246;9.100;2022-08-21T10:35:14;6.13;;;2.58;;
14118;SDS011;7138;49.246;9.100;2022-08-21T10:37:52;6.93;;;2.78;;
14118;SDS011;7138;49.246;9.100;2022-08-21T10:40:46;12.15;;;2.90;;
14118;SDS011;7138;49.246;9.100;2022-08-21T10:43:27;7.85;;;3.10;;
14118;SDS011;7138;49.246;9.100;2022-08-21T10:46:11;7.53;;;2.92;;
14118;SDS011;7138;49.246;9.100;2022-08-21T10:48:56;9.23;;;2.65;;
14118;SDS011;7138;49.246;9.100;2022-08-21T10:51:35;8.38;;;2.63;;
14118;SDS011;7138;49.246;9.100;2022-08-21T10:54:14;5.70;;;2.33;;
14118;SDS011;7138;49.246;9.100;2022-08-21T10:56:55;10.27;;;3.28;;
14118;SDS011;7138;49.246;9.100;2022-08-21T10:59:31;5.93;;;2.78;;
14118;SDS011;7138;49.246;9.100;2022-08-21T11:02:08;5.13;;;2.25;;
14118;SDS011;7138;49.246;9.100;2022-08-21T11:04:48;6.85;;;2.63;;
14118;SDS011;7138;49.246;9.100;2022-08-21T11:07:21;6.18;;;2.60;;
14118;SDS011;7138;49.246;9.100;2022-08-21T11:09:55;7.22;;;2.33;;
14118;SDS011;7138;49.246;9.100;2022-08-21T11:12:27;7.25;;;2.47;;
14118;SDS011;7138;49.246;9.100;2022-08-21T11:15:00;8.18;;;2.40;;
14118;SDS011;7138;49.246;9.100;2022-08-21T11:17:38;7.38;;;2.70;;
14118;SDS011;7138;49.246;9.100;2022-08-21T11:20:17;6.40;;;2.47;;
14118;SDS011;7138;49.246;9.100;2022-08-21T11:22:54;4.97;;;2.20;;
14118;SDS011;7138;49.246;9.100;2022-08-21T11:25:31;6.60;;;2.80;;
14118;SDS011;7138;49.246;9.100;2022-08-21T11:28:03;7.13;;;2.50;;
14118;SDS011;7138;49.246;9.100;2022-08-21T11:30:39;7.50;;;2.70;;
14118;SDS011;7138;49.246;9.100;2022-08-21T11:33:26;7.43;;;2.47;;
14118;SDS011;7138;49.246;9.100;2022-08-21T11:36:14;8.63;;;2.53;;
14118;SDS011;7138;49.246;9.100;2022-08-21T11:38:50;6.47;;;2.65;;
14118;SDS011;7138;49.246;9.100;2022-08-21T11:41:29;8.00;;;3.10;;
14118;SDS011;7138;49.246;9.100;2022-08-21T11:44:05;7.05;;;2.50;;
14118;SDS011;7138;49.246;9.100;2022-08-21T11:46:46;9.00;;;2.70;;
14118;SDS011;7138;49.246;9.100;2022-08-21T11:49:23;7.60;;;2.60;;
14118;SDS011;7138;49.246;9.100;2022-08-21T11:52:08;6.10;;;2.40;;
14118;SDS011;7138;49.246;9.100;2022-08-21T11:54:44;6.68;;;2.50;;
14118;SDS011;7138;49.246;9.100;2022-08-21T11:57:19;6.97;;;2.72;;
14118;SDS011;7138;49.246;9.100;2022-08-21T11:59:52;5.05;;;2.58;;
14118;SDS011;7138;49.246;9.100;2022-08-21T12:02:28;5.93;;;2.30;;
14118;SDS011;7138;49.246;9.100;2022-08-21T12:05:00;7.78;;;2.90;;
14118;SDS011;7138;49.246;9.100;2022-08-21T12:07:33;5.85;;;2.28;;
14118;SDS011;7138;49.246;9.100;2022-08-21T12:10:04;7.90;;;2.67;;
14118;SDS011;7138;49.246;9.100;2022-08-21T12:12:36;6.03;;;2.63;;
14118;SDS011;7138;49.246;9.100;2022-08-21T12:15:11;8.32;;;2.67;;
14118;SDS011;7138;49.246;9.100;2022-08-21T12:17:54;9.27;;;2.80;;
14118;SDS011;7138;49.246;9.100;2022-08-21T12:23:27;6.78;;;2.45;;
14118;SDS011;7138;49.246;9.100;2022-08-21T12:28:52;5.10;;;2.10;;
14118;SDS011;7138;49.246;9.100;2022-08-21T12:31:50;6.03;;;2.40;;
14118;SDS011;7138;49.246;9.100;2022-08-21T12:34:21;5.90;;;2.53;;
14118;SDS011;7138;49.246;9.100;2022-08-21T12:36:57;6.55;;;2.35;;
14118;SDS011;7138;49.246;9.100;2022-08-21T12:39:30;4.50;;;1.90;;
14118;SDS011;7138;49.246;9.100;2022-08-21T12:42:04;8.02;;;2.10;;
14118;SDS011;7138;49.246;9.100;2022-08-21T12:44:43;7.65;;;2.50;;
14118;SDS011;7138;49.246;9.100;2022-08-21T12:47:17;5.80;;;2.40;;
14118;SDS011;7138;49.246;9.100;2022-08-21T12:49:56;5.05;;;2.22;;
14118;SDS011;7138;49.246;9.100;2022-08-21T12:52:29;7.43;;;2.30;;
14118;SDS011;7138;49.246;9.100;2022-08-21T12:55:00;6.40;;;2.35;;
14118;SDS011;7138;49.246;9.100;2022-08-21T12:57:27;6.30;;;2.50;;
14118;SDS011;7138;49.246;9.100;2022-08-21T12:59:57;5.33;;;2.00;;
14118;SDS011;7138;49.246;9.100;2022-08-21T13:02:26;7.50;;;2.58;;
14118;SDS011;7138;49.246;9.100;2022-08-21T13:04:56;6.28;;;2.60;;
14118;SDS011;7138;49.246;9.100;2022-08-21T13:07:29;5.35;;;2.00;;
14118;SDS011;7138;49.246;9.100;2022-08-21T13:10:00;8.05;;;2.33;;
14118;SDS011;7138;49.246;9.100;2022-08-21T13:12:32;5.72;;;1.95;;
14118;SDS011;7138;49.246;9.100;2022-08-21T13:15:03;4.68;;;2.15;;
14118;SDS011;7138;49.246;9.100;2022-08-21T13:17:31;8.15;;;2.28;;
14118;SDS011;7138;49.246;9.100;2022-08-21T13:20:04;8.13;;;2.08;;
14118;SDS011;7138;49.246;9.100;2022-08-21T13:22:40;6.60;;;2.20;;
14118;SDS011;7138;49.246;9.100;2022-08-21T13:25:09;4.13;;;2.10;;
14118;SDS011;7138;49.246;9.100;2022-08-21T13:27:37;6.18;;;2.30;;
14118;SDS011;7138;49.246;9.100;2022-08-21T13:30:07;6.10;;;2.20;;
14118;SDS011;7138;49.246;9.100;2022-08-21T13:32:40;5.03;;;2.15;;
14118;SDS011;7138;49.246;9.100;2022-08-21T13:35:17;6.20;;;2.22;;
14118;SDS011;7138;49.246;9.100;2022-08-21T13:37:48;6.35;;;2.00;;
14118;SDS011;7138;49.246;9.100;2022-08-21T13:42:46;5.63;;;2.13;;
14118;SDS011;7138;49.246;9.100;2022-08-21T13:45:18;7.70;;;2.35;;
14118;SDS011;7138;49.246;9.100;2022-08-21T13:47:49;6.80;;;2.20;;
14118;SDS011;7138;49.246;9.100;2022-08-21T13:50:18;5.70;;;2.10;;
14118;SDS011;7138;49.246;9.100;2022-08-21T13:52:49;5.57;;;2.33;;
14118;SDS011;7138;49.246;9.100;2022-08-21T13:55:24;6.07;;;2.22;;
14118;SDS011;7138;49.246;9.100;2022-08-21T13:58:00;5.88;;;2.30;;
14118;SDS011;7138;49.246;9.100;2022-08-21T14:00:31;6.43;;;2.30;;
14118;SDS011;7138;49.246;9.100;2022-08-21T14:03:03;4.75;;;2.00;;
14118;SDS011;7138;49.246;9.100;2022-08-21T14:05:35;8.10;;;2.65;;
14118;SDS011;7138;49.246;9.100;2022-08-21T14:08:10;6.10;;;2.42;;
14118;SDS011;7138;49.246;9.100;2022-08-21T14:10:41;6.10;;;2.55;;
14118;SDS011;7138;49.246;9.100;2022-08-21T14:13:24;5.28;;;2.55;;
14118;SDS011;7138;49.246;9.100;2022-08-21T14:16:12;5.13;;;2.38;;
14118;SDS011;7138;49.246;9.100;2022-08-21T14:18:43;5.03;;;2.38;;
14118;SDS011;7138;49.246;9.100;2022-08-21T14:21:23;6.90;;;2.38;;
14118;SDS011;7138;49.246;9.100;2022-08-21T14:24:05;4.80;;;2.30;;
14118;SDS011;7138;49.246;9.100;2022-08-21T14:26:37;7.25;;;2.05;;
14118;SDS011;7138;49.246;9.100;2022-08-21T14:29:12;5.68;;;2.45;;
14118;SDS011;7138;49.246;9.100;2022-08-21T14:31:42;5.82;;;2.35;;
14118;SDS011;7138;49.246;9.100;2022-08-21T14:34:14;6.05;;;2.53;;
14118;SDS011;7138;49.246;9.100;2022-08-21T14:36:41;9.68;;;2.15;;
14118;SDS011;7138;49.246;9.100;2022-08-21T14:39:08;6.68;;;2.38;;
14118;SDS011;7138;49.246;9.100;2022-08-21T14:41:34;4.38;;;2.08;;
14118;SDS011;7138;49.246;9.100;2022-08-21T14:44:02;5.50;;;1.98;;
14118;SDS011;7138;49.246;9.100;2022-08-21T14:46:30;6.38;;;2.22;;
14118;SDS011;7138;49.246;9.100;2022-08-21T14:48:58;5.70;;;2.15;;
14118;SDS011;7138;49.246;9.100;2022-08-21T14:51:24;5.18;;;2.20;;
14118;SDS011;7138;49.246;9.100;2022-08-21T14:53:49;6.20;;;2.15;;
14118;SDS011;7138;49.246;9.100;2022-08-21T14:56:15;6.65;;;2.40;;
14118;SDS011;7138;49.246;9.100;2022-08-21T14:58:44;4.75;;;2.33;;
14118;SDS011;7138;49.246;9.100;2022-08-21T15:01:14;5.13;;;2.20;;
14118;SDS011;7138;49.246;9.100;2022-08-21T15:03:43;5.78;;;2.10;;
14118;SDS011;7138;49.246;9.100;2022-08-21T15:06:12;4.22;;;2.00;;
14118;SDS011;7138;49.246;9.100;2022-08-21T15:08:38;5.93;;;2.08;;
14118;SDS011;7138;49.246;9.100;2022-08-21T15:11:04;4.97;;;2.03;;
14118;SDS011;7138;49.246;9.100;2022-08-21T15:13:33;5.50;;;2.17;;
14118;SDS011;7138;49.246;9.100;2022-08-21T15:16:00;4.03;;;2.10;;
14118;SDS011;7138;49.246;9.100;2022-08-21T15:18:27;5.35;;;1.83;;
14118;SDS011;7138;49.246;9.100;2022-08-21T15:20:54;4.95;;;1.73;;
14118;SDS011;7138;49.246;9.100;2022-08-21T15:23:22;4.38;;;1.90;;
14118;SDS011;7138;49.246;9.100;2022-08-21T15:25:48;4.18;;;2.10;;
14118;SDS011;7138;49.246;9.100;2022-08-21T15:28:15;4.57;;;2.05;;
14118;SDS011;7138;49.246;9.100;2022-08-21T15:30:43;6.35;;;2.33;;